Time;durP1;ratioP1;P1;durP2;ratioP2;P2;SDS_P1;SDS_P2;PMS_P1;PMS_P2;Temp;Humidity;BMP_temperature;BMP_pressure;BME280_temperature;BME280_humidity;BME280_pressure;Samples;Min_cycle;Max_cycle;Signal;HPM_P1;HPM_P2
2022/07/07 00:00:52;;;;;;;;;;;;;;;26.23;38.26;98278.06;5103611;28;19924;-63
2022/07/07 00:03:18;;;;;;;;;;;;;;;26.27;38.29;98273.47;5124496;28;19924;-63
2022/07/07 00:05:45;;;;;;;;;;;;;;;26.34;38.15;98273.59;5124122;28;19962;-63
2022/07/07 00:08:11;;;;;;;;;;;;;;;26.35;38.14;98274.41;5120962;28;20356;-64
2022/07/07 00:10:37;;;;;;;;;;;;;;;26.31;38.09;98271.56;5121271;28;19920;-62
2022/07/07 00:13:04;;;;;;;;;;;;;;;26.34;38.16;98284.56;5123582;28;19924;-62
2022/07/07 00:15:30;;;;;;;;;;;;;;;26.35;38.10;98280.69;5124715;28;19962;-62
2022/07/07 00:17:58;;;;;;;;;;;;;;;26.35;38.10;98280.69;5123143;28;19931;-62
2022/07/07 00:20:24;;;;;;;;;;;;;;;26.36;38.21;98287.75;5126909;27;20503;-61
2022/07/07 00:22:51;;;;;;;;;;;;;;;26.26;38.21;98272.66;5127673;27;19962;-62
2022/07/07 00:25:17;;;;;;;;;;;;;;;26.20;38.31;98273.28;5124436;28;19920;-61
2022/07/07 00:27:44;;;;;;;;;;;;;;;26.28;38.41;98273.09;5124164;28;19930;-61
2022/07/07 00:30:11;;;;;;;;;;;;;;;25.81;38.44;98287.97;5121047;28;19931;-61
2022/07/07 00:32:37;;;;;;;;;;;;;;;25.85;38.81;98284.16;5120640;28;20525;-62
2022/07/07 00:35:05;;;;;;;;;;;;;;;25.98;38.64;98287.59;5121628;28;19924;-62
2022/07/07 00:37:32;;;;;;;;;;;;;;;26.02;38.53;98275.59;5124230;28;19924;-63
2022/07/07 00:39:58;;;;;;;;;;;;;;;25.97;38.64;98281.31;5122476;28;19926;-62
2022/07/07 00:42:24;;;;;;;;;;;;;;;26.04;38.45;98278.75;5102622;28;19931;-62
2022/07/07 00:44:51;;;;;;;;;;;;;;;25.83;38.82;98272.78;5121154;28;19959;-62
2022/07/07 00:47:19;;;;;;;;;;;;;;;25.96;38.69;98276.22;5123981;28;20016;-62
2022/07/07 00:49:46;;;;;;;;;;;;;;;25.96;38.64;98276.22;5123827;28;19938;-62
2022/07/07 00:52:13;;;;;;;;;;;;;;;26.01;38.67;98282.22;5132669;27;19962;-62
2022/07/07 00:54:40;;;;;;;;;;;;;;;26.01;38.64;98271.25;5120448;28;20000;-62
2022/07/07 00:57:06;;;;;;;;;;;;;;;26.01;38.46;98265.00;5123203;28;19951;-62
2022/07/07 00:59:34;;;;;;;;;;;;;;;26.02;38.57;98267.38;5123934;28;19966;-62
2022/07/07 01:02:00;;;;;;;;;;;;;;;26.01;38.50;98263.06;5121821;28;19931;-62
2022/07/07 01:04:26;;;;;;;;;;;;;;;25.92;38.70;98259.72;5120212;28;19924;-63
2022/07/07 01:06:53;;;;;;;;;;;;;;;25.95;38.66;98255.47;5120575;28;20368;-62
2022/07/07 01:09:22;;;;;;;;;;;;;;;25.92;38.80;98261.66;5123386;28;19927;-62
2022/07/07 01:11:49;;;;;;;;;;;;;;;25.80;38.81;98265.28;5123254;28;19927;-62
2022/07/07 01:14:16;;;;;;;;;;;;;;;25.87;38.70;98261.94;5119936;28;19924;-61
2022/07/07 01:16:42;;;;;;;;;;;;;;;25.85;38.80;98259.53;5119706;28;19924;-61
2022/07/07 01:19:09;;;;;;;;;;;;;;;25.81;39.01;98268.81;5123004;28;19994;-62
2022/07/07 01:21:38;;;;;;;;;;;;;;;25.82;38.83;98267.66;5135536;27;19924;-62
2022/07/07 01:24:06;;;;;;;;;;;;;;;25.83;38.91;98263.78;5120850;28;19980;-62
2022/07/07 01:26:32;;;;;;;;;;;;;;;25.73;38.86;98271.38;5119439;28;20059;-62
2022/07/07 01:28:59;;;;;;;;;;;;;;;25.62;39.21;98264.84;5121129;28;19967;-62
2022/07/07 01:31:26;;;;;;;;;;;;;;;25.63;39.09;98266.41;5122971;28;19959;-62
2022/07/07 01:33:52;;;;;;;;;;;;;;;25.66;39.12;98265.72;5122086;28;19924;-63
2022/07/07 01:36:19;;;;;;;;;;;;;;;25.59;39.12;98275.69;5119305;28;19970;-62
2022/07/07 01:38:45;;;;;;;;;;;;;;;25.65;39.18;98269.63;5119241;28;19935;-61
2022/07/07 01:41:13;;;;;;;;;;;;;;;25.59;39.22;98279.19;5122872;28;19919;-62
2022/07/07 01:43:39;;;;;;;;;;;;;;;25.59;39.17;98272.97;5122664;28;19966;-62
2022/07/07 01:46:06;;;;;;;;;;;;;;;25.52;39.12;98267.31;5119706;28;19983;-61
2022/07/07 01:48:33;;;;;;;;;;;;;;;25.52;39.22;98273.56;5119025;28;19946;-62
2022/07/07 01:50:59;;;;;;;;;;;;;;;25.57;39.14;98270.56;5133255;27;19930;-62
2022/07/07 01:53:25;;;;;;;;;;;;;;;25.47;39.14;98265.59;5122686;28;19923;-62
2022/07/07 01:55:52;;;;;;;;;;;;;;;25.57;39.38;98270.56;5121714;28;19923;-62
2022/07/07 01:58:20;;;;;;;;;;;;;;;25.51;39.41;98261.03;5118884;28;19924;-62
2022/07/07 02:00:46;;;;;;;;;;;;;;;25.56;39.20;98268.97;5118999;28;20037;-62
2022/07/07 02:03:12;;;;;;;;;;;;;;;25.44;39.55;98279.19;5110629;28;20484;-62
2022/07/07 02:05:39;;;;;;;;;;;;;;;25.44;39.46;98269.03;5110454;28;19924;-61
2022/07/07 02:08:05;;;;;;;;;;;;;;;25.44;39.42;98276.44;5110305;28;19931;-62
2022/07/07 02:13:16;;;;;;;;;;;;;;;25.35;39.65;98271.13;5114303;28;19923;-62
2022/07/07 02:15:43;;;;;;;;;;;;;;;25.36;39.60;98269.19;5122387;28;19924;-61
2022/07/07 02:18:10;;;;;;;;;;;;;;;25.28;39.79;98270.97;5119263;28;19924;-62
2022/07/07 02:20:36;;;;;;;;;;;;;;;25.29;39.87;98266.25;5127995;27;19966;-62
2022/07/07 02:23:03;;;;;;;;;;;;;;;25.23;39.86;98274.72;5123602;27;19988;-62
2022/07/07 02:25:29;;;;;;;;;;;;;;;25.23;39.89;98271.19;5122140;28;19924;-62
2022/07/07 02:27:55;;;;;;;;;;;;;;;25.33;39.61;98264.41;5120848;28;19930;-62
2022/07/07 02:30:22;;;;;;;;;;;;;;;25.25;39.90;98268.94;5118627;28;20023;-62
2022/07/07 02:32:50;;;;;;;;;;;;;;;25.27;39.85;98276.75;5118664;28;19924;-63
2022/07/07 02:35:16;;;;;;;;;;;;;;;25.21;39.86;98270.75;5122134;28;20011;-62
2022/07/07 02:37:42;;;;;;;;;;;;;;;25.22;39.94;98272.38;5122241;28;19930;-62
2022/07/07 02:40:10;;;;;;;;;;;;;;;25.17;40.07;98270.66;5119065;28;20004;-61
2022/07/07 02:42:37;;;;;;;;;;;;;;;25.22;40.05;98266.91;5118398;28;19959;-61
2022/07/07 02:45:04;;;;;;;;;;;;;;;25.15;40.22;98258.50;5120668;28;19924;-62
2022/07/07 02:47:30;;;;;;;;;;;;;;;25.07;40.37;98264.91;5121776;28;20424;-62
2022/07/07 02:49:58;;;;;;;;;;;;;;;25.13;40.44;98263.50;5120530;28;19967;-62
2022/07/07 02:52:24;;;;;;;;;;;;;;;25.13;40.36;98252.56;5130759;27;19927;-62
2022/07/07 02:54:50;;;;;;;;;;;;;;;25.05;40.44;98256.25;5118904;28;19936;-62
2022/07/07 02:57:17;;;;;;;;;;;;;;;25.07;40.44;98253.97;5122031;28;19945;-63
2022/07/07 02:59:43;;;;;;;;;;;;;;;25.11;40.48;98257.59;5126210;28;19924;-62
2022/07/07 03:02:09;;;;;;;;;;;;;;;25.00;40.70;98245.59;5122997;28;20580;-63
2022/07/07 03:04:36;;;;;;;;;;;;;;;25.05;40.52;98245.34;5104704;28;20015;-63
2022/07/07 03:07:04;;;;;;;;;;;;;;;25.05;40.57;98246.13;5124400;28;19924;-62
2022/07/07 03:09:30;;;;;;;;;;;;;;;25.09;40.67;98251.69;5107657;28;19951;-62
2022/07/07 03:11:56;;;;;;;;;;;;;;;24.91;40.52;98251.22;5124433;28;19935;-63
2022/07/07 03:14:24;;;;;;;;;;;;;;;24.98;40.70;98250.59;5122175;28;19924;-63
2022/07/07 03:16:50;;;;;;;;;;;;;;;24.97;40.65;98246.28;5122509;28;19924;-62
2022/07/07 03:19:17;;;;;;;;;;;;;;;24.95;40.90;98246.63;5125625;28;19959;-62
2022/07/07 03:21:43;;;;;;;;;;;;;;;24.91;40.91;98248.50;5138099;27;19928;-61
2022/07/07 03:24:11;;;;;;;;;;;;;;;24.94;40.80;98247.78;5122762;28;19935;-61
2022/07/07 03:26:37;;;;;;;;;;;;;;;24.97;40.75;98240.81;5122178;28;19931;-62
2022/07/07 03:29:03;;;;;;;;;;;;;;;24.92;40.91;98241.84;5124077;28;19935;-62
2022/07/07 03:31:30;;;;;;;;;;;;;;;24.89;40.77;98239.03;5125417;28;19923;-63
2022/07/07 03:33:56;;;;;;;;;;;;;;;24.92;40.87;98241.84;5124083;28;19927;-62
2022/07/07 03:36:22;;;;;;;;;;;;;;;24.85;40.89;98249.84;5121891;28;19923;-61
2022/07/07 03:38:49;;;;;;;;;;;;;;;24.84;40.96;98245.53;5122154;28;19987;-62
2022/07/07 03:41:16;;;;;;;;;;;;;;;24.85;41.00;98246.34;5125305;28;19924;-62
2022/07/07 03:43:43;;;;;;;;;;;;;;;24.79;41.15;98247.72;5125260;28;19920;-62
2022/07/07 03:46:09;;;;;;;;;;;;;;;24.81;41.04;98257.16;5122262;28;19959;-62
2022/07/07 03:48:36;;;;;;;;;;;;;;;24.81;41.22;98245.41;5121552;28;19968;-62
2022/07/07 03:51:02;;;;;;;;;;;;;;;24.78;41.14;98246.91;5135857;27;19934;-61
2022/07/07 03:53:28;;;;;;;;;;;;;;;24.73;41.10;98245.22;5124864;28;19927;-62
2022/07/07 03:55:55;;;;;;;;;;;;;;;24.75;40.98;98244.06;5123761;28;19924;-62
2022/07/07 03:58:22;;;;;;;;;;;;;;;24.73;41.17;98243.63;5121156;28;19966;-62
2022/07/07 04:00:49;;;;;;;;;;;;;;;24.82;40.99;98247.03;5121562;28;19935;-61
2022/07/07 04:03:15;;;;;;;;;;;;;;;24.79;40.96;98242.25;5124789;28;19971;-62
2022/07/07 04:05:42;;;;;;;;;;;;;;;24.77;41.22;98249.97;5124516;28;19966;-61
2022/07/07 04:08:08;;;;;;;;;;;;;;;24.68;41.44;98247.41;5121539;28;19924;-62
2022/07/07 04:10:35;;;;;;;;;;;;;;;24.76;41.21;98242.94;5120734;28;19924;-61
2022/07/07 04:13:01;;;;;;;;;;;;;;;24.62;41.47;98244.13;5122817;28;19931;-61
2022/07/07 04:15:29;;;;;;;;;;;;;;;24.67;41.30;98249.31;5124517;28;19923;-62
2022/07/07 04:17:55;;;;;;;;;;;;;;;24.61;41.38;98247.97;5123107;28;19959;-62
2022/07/07 04:20:22;;;;;;;;;;;;;;;24.62;41.49;98249.56;5125899;27;19924;-61
2022/07/07 04:22:48;;;;;;;;;;;;;;;24.65;41.35;98253.56;5127577;27;19966;-62
2022/07/07 04:25:14;;;;;;;;;;;;;;;24.67;41.52;98251.25;5124171;28;19951;-62
2022/07/07 04:27:41;;;;;;;;;;;;;;;24.64;41.53;98260.13;5124270;28;19931;-61
2022/07/07 04:30:08;;;;;;;;;;;;;;;24.58;41.56;98256.06;5121345;28;19951;-61
2022/07/07 04:32:35;;;;;;;;;;;;;;;24.62;41.70;98254.25;5120934;28;20335;-62
2022/07/07 04:35:02;;;;;;;;;;;;;;;24.59;41.73;98238.56;5123074;28;19983;-61
2022/07/07 04:37:28;;;;;;;;;;;;;;;24.62;41.51;98255.03;5124251;28;19932;-62
2022/07/07 04:39:55;;;;;;;;;;;;;;;24.63;41.51;98255.84;5123012;28;19934;-62
2022/07/07 04:42:21;;;;;;;;;;;;;;;24.55;41.61;98256.75;5120563;28;19924;-63
2022/07/07 04:44:47;;;;;;;;;;;;;;;24.58;41.66;98267.78;5120711;28;19924;-61
2022/07/07 04:47:14;;;;;;;;;;;;;;;24.57;41.65;98263.47;5123938;28;19920;-62
2022/07/07 04:49:41;;;;;;;;;;;;;;;24.53;41.74;98270.78;5123798;28;19924;-63
2022/07/07 04:52:08;;;;;;;;;;;;;;;24.47;41.86;98268.63;5133330;27;20001;-62
2022/07/07 04:54:34;;;;;;;;;;;;;;;24.47;41.84;98274.88;5120084;28;19966;-62
2022/07/07 04:57:01;;;;;;;;;;;;;;;24.32;42.08;98261.94;5121836;28;19924;-61
2022/07/07 04:59:27;;;;;;;;;;;;;;;24.28;42.30;98266.50;5123500;28;19950;-62
2022/07/07 05:01:54;;;;;;;;;;;;;;;24.36;42.33;98260.09;5122707;28;20204;-61
2022/07/07 05:04:20;;;;;;;;;;;;;;;24.36;42.03;98271.03;5119996;28;19924;-62
2022/07/07 05:06:48;;;;;;;;;;;;;;;24.42;42.12;98261.44;5119680;28;19974;-61
2022/07/07 05:09:14;;;;;;;;;;;;;;;24.33;42.21;98258.06;5111441;28;19920;-62
2022/07/07 05:11:40;;;;;;;;;;;;;;;24.37;42.44;98260.91;5111512;28;19980;-62
2022/07/07 05:14:07;;;;;;;;;;;;;;;24.39;42.18;98261.34;5111307;28;19931;-62
2022/07/07 05:16:33;;;;;;;;;;;;;;;24.47;42.32;98260.44;5111258;28;20003;-62
2022/07/07 05:18:59;;;;;;;;;;;;;;;24.37;42.62;98261.69;5111251;28;19925;-61
2022/07/07 05:21:26;;;;;;;;;;;;;;;24.43;42.65;98260.31;5128296;27;19924;-62
2022/07/07 05:23:54;;;;;;;;;;;;;;;24.46;42.79;98262.38;5122544;28;19942;-61
2022/07/07 05:26:20;;;;;;;;;;;;;;;24.40;42.62;98257.47;5119554;28;19931;-62
2022/07/07 05:28:47;;;;;;;;;;;;;;;24.39;42.83;98262.13;5119471;28;19931;-62
2022/07/07 05:31:14;;;;;;;;;;;;;;;24.47;42.77;98263.97;5119466;28;19924;-62
2022/07/07 05:33:41;;;;;;;;;;;;;;;24.51;42.80;98258.59;5119406;28;19924;-61
2022/07/07 05:36:08;;;;;;;;;;;;;;;24.50;42.71;98257.81;5122181;28;19989;-62
2022/07/07 05:38:35;;;;;;;;;;;;;;;24.46;42.53;98261.56;5122874;28;19991;-62
2022/07/07 05:41:03;;;;;;;;;;;;;;;24.41;42.63;98273.53;5120750;28;19931;-62
2022/07/07 05:43:29;;;;;;;;;;;;;;;24.42;42.74;98263.38;5119055;28;19924;-62
2022/07/07 05:45:56;;;;;;;;;;;;;;;24.42;42.77;98260.66;5120340;28;19962;-63
2022/07/07 05:48:22;;;;;;;;;;;;;;;24.40;42.79;98260.22;5122474;28;19924;-62
2022/07/07 05:50:48;;;;;;;;;;;;;;;24.34;43.02;98262.38;5128845;27;19924;-61
2022/07/07 05:53:15;;;;;;;;;;;;;;;24.41;42.76;98264.53;5122740;28;19959;-62
2022/07/07 05:55:41;;;;;;;;;;;;;;;24.23;43.13;98255.81;5122511;28;19955;-62
2022/07/07 05:58:09;;;;;;;;;;;;;;;24.20;42.88;98259.25;5119928;28;20450;-61
2022/07/07 06:00:36;;;;;;;;;;;;;;;24.25;43.24;98256.28;5119016;28;19924;-62
2022/07/07 06:03:02;;;;;;;;;;;;;;;24.18;43.20;98251.38;5120985;28;19928;-62
2022/07/07 06:05:29;;;;;;;;;;;;;;;24.09;43.62;98250.69;5122288;28;19920;-62
2022/07/07 06:07:55;;;;;;;;;;;;;;;24.31;43.08;98252.16;5121153;28;20016;-62
2022/07/07 06:10:22;;;;;;;;;;;;;;;24.27;43.36;98259.44;5118881;28;19935;-63
2022/07/07 06:12:48;;;;;;;;;;;;;;;24.25;43.25;98248.06;5118877;28;19972;-62
2022/07/07 06:15:17;;;;;;;;;;;;;;;24.05;43.76;98251.69;5122318;28;19924;-62
2022/07/07 06:17:44;;;;;;;;;;;;;;;23.88;44.09;98252.75;5122425;28;19924;-62
2022/07/07 06:20:10;;;;;;;;;;;;;;;23.79;44.02;98248.53;5121056;28;19932;-62
2022/07/07 06:22:37;;;;;;;;;;;;;;;23.57;44.53;98250.56;5128738;27;19928;-61
2022/07/07 06:25:03;;;;;;;;;;;;;;;23.81;44.06;98257.97;5120765;28;19983;-61
2022/07/07 06:27:30;;;;;;;;;;;;;;;24.09;43.67;98268.97;5122033;28;19924;-61
2022/07/07 06:29:57;;;;;;;;;;;;;;;24.14;43.87;98264.13;5120734;28;19970;-62
2022/07/07 06:32:24;;;;;;;;;;;;;;;24.11;43.93;98270.25;5118357;28;19924;-62
2022/07/07 06:34:51;;;;;;;;;;;;;;;24.06;44.03;98273.19;5118805;28;19931;-61
2022/07/07 06:37:17;;;;;;;;;;;;;;;24.02;43.98;98274.22;5103932;28;19959;-62
2022/07/07 06:39:44;;;;;;;;;;;;;;;24.11;43.99;98266.72;5121815;28;19934;-61
2022/07/07 06:42:10;;;;;;;;;;;;;;;24.01;43.90;98264.44;5118693;28;19924;-62
2022/07/07 06:44:37;;;;;;;;;;;;;;;24.03;44.14;98262.16;5118474;28;19928;-62
2022/07/07 06:47:03;;;;;;;;;;;;;;;24.08;44.05;98259.19;5120601;28;19960;-62
2022/07/07 06:49:31;;;;;;;;;;;;;;;24.01;43.90;98261.72;5121787;28;19920;-63
2022/07/07 06:51:57;;;;;;;;;;;;;;;24.05;44.30;98257.94;5133294;28;19935;-63
2022/07/07 06:54:23;;;;;;;;;;;;;;;23.82;44.43;98254.09;5118424;28;19931;-62
2022/07/07 06:56:50;;;;;;;;;;;;;;;23.72;44.73;98254.56;5118551;28;19963;-62
2022/07/07 06:59:17;;;;;;;;;;;;;;;23.76;44.79;98252.75;5121994;28;19950;-61
2022/07/07 07:01:44;;;;;;;;;;;;;;;23.79;44.90;98254.78;5121638;28;19923;-62
2022/07/07 07:04:13;;;;;;;;;;;;;;;23.95;44.39;98249.44;5118694;28;19928;-62
2022/07/07 07:06:41;;;;;;;;;;;;;;;24.08;44.57;98256.47;5117950;28;19920;-61
2022/07/07 07:09:07;;;;;;;;;;;;;;;24.11;44.57;98259.34;5120829;28;19924;-62
2022/07/07 07:11:34;;;;;;;;;;;;;;;24.14;44.51;98266.03;5121524;28;19924;-62
2022/07/07 07:14:02;;;;;;;;;;;;;;;24.24;44.15;98264.78;5119792;28;19928;-62
2022/07/07 07:16:29;;;;;;;;;;;;;;;24.00;44.60;98260.94;5118143;28;19924;-62
2022/07/07 07:18:55;;;;;;;;;;;;;;;24.23;44.40;98252.28;5119083;28;19928;-61
2022/07/07 07:21:22;;;;;;;;;;;;;;;24.24;44.26;98265.59;5134503;27;19924;-61
2022/07/07 07:23:49;;;;;;;;;;;;;;;24.40;44.03;98262.94;5121517;28;19963;-61
2022/07/07 07:26:16;;;;;;;;;;;;;;;24.25;44.41;98263.66;5118057;28;19935;-62
2022/07/07 07:28:42;;;;;;;;;;;;;;;23.89;45.04;98257.03;5117960;28;19969;-62
2022/07/07 07:31:08;;;;;;;;;;;;;;;23.83;45.02;98263.88;5120642;28;19927;-61
2022/07/07 07:33:36;;;;;;;;;;;;;;;24.21;45.01;98260.81;5121366;28;19932;-61
2022/07/07 07:36:03;;;;;;;;;;;;;;;24.02;45.08;98268.75;5119152;28;19930;-62
2022/07/07 07:38:30;;;;;;;;;;;;;;;23.99;45.29;98269.44;5117680;28;19970;-61
2022/07/07 07:40:57;;;;;;;;;;;;;;;23.86;45.59;98263.19;5118836;28;19931;-61
2022/07/07 07:43:24;;;;;;;;;;;;;;;23.62;45.88;98263.97;5121124;28;19934;-61
2022/07/07 07:45:50;;;;;;;;;;;;;;;23.54;46.05;98264.88;5124723;28;20419;-62
2022/07/07 07:48:16;;;;;;;;;;;;;;;23.53;46.21;98274.19;5121504;28;19924;-62
2022/07/07 07:50:43;;;;;;;;;;;;;;;23.63;46.29;98268.31;5132663;27;19961;-61
2022/07/07 07:53:09;;;;;;;;;;;;;;;23.92;45.79;98282.88;5125404;27;19929;-61
2022/07/07 07:55:36;;;;;;;;;;;;;;;23.98;45.78;98270.59;5124748;28;19928;-61
2022/07/07 07:58:03;;;;;;;;;;;;;;;24.00;45.62;98276.50;5122754;28;19924;-61
2022/07/07 08:00:30;;;;;;;;;;;;;;;23.54;46.46;98270.34;5121217;28;19975;-61
2022/07/07 08:02:56;;;;;;;;;;;;;;;23.48;46.50;98265.44;5122336;28;19962;-61
2022/07/07 08:05:22;;;;;;;;;;;;;;;23.51;46.85;98260.13;5124882;28;19931;-61
2022/07/07 08:07:49;;;;;;;;;;;;;;;23.69;46.68;98255.22;5124587;28;19920;-62
2022/07/07 08:10:17;;;;;;;;;;;;;;;23.74;46.76;98255.00;5121209;28;19938;-62
2022/07/07 08:12:44;;;;;;;;;;;;;;;23.96;46.27;98265.47;5121236;28;19928;-61
2022/07/07 08:15:13;;;;;;;;;;;;;;;23.75;46.40;98256.59;5124401;28;19924;-61
2022/07/07 08:17:40;;;;;;;;;;;;;;;23.91;46.68;98262.19;5124782;28;19924;-61
2022/07/07 08:20:08;;;;;;;;;;;;;;;23.99;46.54;98261.25;5123140;28;19924;-62
2022/07/07 08:22:34;;;;;;;;;;;;;;;23.98;46.47;98260.47;5132079;27;19928;-61
2022/07/07 08:25:01;;;;;;;;;;;;;;;23.71;47.06;98265.78;5122784;28;19970;-61
2022/07/07 08:27:27;;;;;;;;;;;;;;;23.71;47.11;98254.88;5124361;28;19959;-62
2022/07/07 08:29:53;;;;;;;;;;;;;;;23.62;47.24;98260.44;5123550;28;19924;-62
2022/07/07 08:32:21;;;;;;;;;;;;;;;23.46;47.50;98262.25;5120721;28;19946;-62
2022/07/07 08:34:47;;;;;;;;;;;;;;;23.43;47.31;98263.72;5120781;28;20011;-62
2022/07/07 08:37:14;;;;;;;;;;;;;;;23.33;47.93;98253.25;5112156;28;19959;-62
2022/07/07 08:39:40;;;;;;;;;;;;;;;23.59;47.39;98261.13;5112124;28;19943;-61
2022/07/07 08:42:07;;;;;;;;;;;;;;;23.79;47.15;98271.16;5111923;28;19970;-62
2022/07/07 08:44:34;;;;;;;;;;;;;;;23.61;47.07;98276.00;5111961;28;20091;-62
2022/07/07 08:47:00;;;;;;;;;;;;;;;23.26;48.16;98265.81;5111877;28;19928;-61
2022/07/07 08:49:28;;;;;;;;;;;;;;;23.27;48.40;98267.41;5111842;28;19966;-61
2022/07/07 08:51:55;;;;;;;;;;;;;;;23.37;48.16;98275.13;5132955;27;19923;-61
2022/07/07 08:54:23;;;;;;;;;;;;;;;23.35;48.57;98275.50;5120226;28;19958;-63
2022/07/07 08:56:49;;;;;;;;;;;;;;;23.50;48.07;98277.59;5119602;28;19935;-62
2022/07/07 08:59:17;;;;;;;;;;;;;;;23.58;48.33;98273.97;5123788;28;19932;-62
2022/07/07 09:01:53;;;;;;;;;;;;;;;23.51;48.24;98276.47;5123822;28;19931;-64
2022/07/07 09:04:19;;;;;;;;;;;;;;;23.31;49.79;98274.56;5120218;28;19924;-62
2022/07/07 09:06:53;;;;;;;;;;;;;;;23.35;50.17;98272.75;5119958;28;19962;-62
2022/07/07 09:09:27;;;;;;;;;;;;;;;23.70;50.22;98270.47;5111661;28;19924;-62
2022/07/07 09:12:00;;;;;;;;;;;;;;;23.75;50.11;98277.63;5111536;28;19931;-62
2022/07/07 09:14:26;;;;;;;;;;;;;;;23.69;51.22;98276.25;5111610;28;19959;-61
2022/07/07 09:16:53;;;;;;;;;;;;;;;23.72;52.24;98273.66;5111376;28;20398;-62
2022/07/07 09:19:19;;;;;;;;;;;;;;;23.76;52.08;98273.75;5111280;28;19924;-62
2022/07/07 09:21:48;;;;;;;;;;;;;;;23.76;52.25;98266.38;5131776;27;20364;-62
2022/07/07 09:24:16;;;;;;;;;;;;;;;23.67;53.19;98274.66;5119878;28;19935;-62
2022/07/07 09:26:44;;;;;;;;;;;;;;;23.87;52.09;98283.88;5119758;28;19925;-61
2022/07/07 09:29:13;;;;;;;;;;;;;;;23.85;52.58;98282.63;5122624;28;19972;-62
2022/07/07 09:31:53;;;;;;;;;;;;;;;23.81;52.48;98285.25;5122977;28;19946;-61
2022/07/07 09:34:19;;;;;;;;;;;;;;;23.87;52.49;98289.34;5119440;28;19920;-61
2022/07/07 09:39:40;;;;;;;;;;;;;;;23.97;54.11;98296.28;5119130;28;19928;-61
2022/07/07 09:42:17;;;;;;;;;;;;;;;23.35;58.38;98299.22;5121783;28;19928;-61
2022/07/07 09:44:44;;;;;;;;;;;;;;;23.52;58.92;98293.63;5122562;28;19924;-61
2022/07/07 09:47:10;;;;;;;;;;;;;;;23.61;59.30;98297.06;5119577;28;19931;-61
2022/07/07 09:49:41;;;;;;;;;;;;;;;23.23;63.26;98302.72;5119053;28;19987;-62
2022/07/07 09:52:14;;;;;;;;;;;;;;;23.34;65.40;98303.88;5133834;27;19924;-62
2022/07/07 09:54:47;;;;;;;;;;;;;;;23.53;66.99;98308.84;5119137;28;19924;-61
2022/07/07 09:57:14;;;;;;;;;;;;;;;23.52;68.39;98309.97;5110973;28;19927;-61
2022/07/07 09:59:41;;;;;;;;;;;;;;;23.71;69.32;98312.94;5110873;28;19924;-63
2022/07/07 10:02:09;;;;;;;;;;;;;;;23.50;72.86;98307.59;5110510;28;19924;-61
2022/07/07 10:04:36;;;;;;;;;;;;;;;23.20;77.37;98317.00;5110447;28;19928;-61
2022/07/07 10:07:03;;;;;;;;;;;;;;;23.50;76.63;98313.03;5109986;28;19920;-62
2022/07/07 10:09:29;;;;;;;;;;;;;;;23.49;77.66;98305.97;5110352;28;19931;-61
2022/07/07 10:11:57;;;;;;;;;;;;;;;23.59;78.44;98313.72;5110282;28;19955;-62
2022/07/07 10:14:24;;;;;;;;;;;;;;;23.60;79.05;98312.59;5110011;28;19924;-61
2022/07/07 10:16:51;;;;;;;;;;;;;;;23.58;81.71;98317.59;5110217;28;19924;-62
2022/07/07 10:19:19;;;;;;;;;;;;;;;23.58;81.91;98319.53;5110207;28;19931;-62
2022/07/07 10:21:46;;;;;;;;;;;;;;;23.57;83.06;98316.00;5130984;27;19928;-61
2022/07/07 10:24:13;;;;;;;;;;;;;;;23.49;83.31;98308.72;5118924;28;20014;-61
2022/07/07 10:26:40;;;;;;;;;;;;;;;23.31;85.10;98315.44;5118610;28;19920;-61
2022/07/07 10:29:08;;;;;;;;;;;;;;;23.40;84.76;98318.91;5121064;28;19963;-61
2022/07/07 10:31:35;;;;;;;;;;;;;;;23.50;84.23;98318.47;5121714;28;19942;-61
2022/07/07 10:34:03;;;;;;;;;;;;;;;23.59;83.55;98321.09;5120286;28;19924;-61
2022/07/07 10:36:44;;;;;;;;;;;;;;;23.49;83.28;98326.97;5100489;28;19924;-61
2022/07/07 10:39:10;;;;;;;;;;;;;;;23.53;84.34;98317.81;5105213;28;19955;-61
2022/07/07 10:41:38;;;;;;;;;;;;;;;23.39;85.52;98311.88;5118336;28;19928;-61
2022/07/07 10:44:06;;;;;;;;;;;;;;;23.31;87.58;98320.91;5120554;28;19943;-62
2022/07/07 10:46:36;;;;;;;;;;;;;;;23.22;88.37;98320.19;5121830;28;19963;-62
2022/07/07 10:49:08;;;;;;;;;;;;;;;23.40;86.60;98324.34;5120154;28;19951;-61
2022/07/07 10:51:50;;;;;;;;;;;;;;;23.10;88.58;98318.22;5130950;27;19930;-61
2022/07/07 10:54:17;;;;;;;;;;;;;;;23.46;87.48;98324.94;5118331;28;19939;-63
2022/07/07 10:57:02;;;;;;;;;;;;;;;23.33;87.82;98323.31;5118260;28;20058;-61
2022/07/07 10:59:29;;;;;;;;;;;;;;;23.12;88.81;98320.59;5118140;28;19931;-61
2022/07/07 11:02:12;;;;;;;;;;;;;;;23.21;88.45;98321.31;5118984;28;19931;-61
2022/07/07 11:04:46;;;;;;;;;;;;;;;23.41;85.40;98315.06;5121487;28;19923;-61
2022/07/07 11:07:14;;;;;;;;;;;;;;;23.38;85.11;98318.44;5118068;28;19958;-62
2022/07/07 11:09:56;;;;;;;;;;;;;;;23.49;84.53;98330.50;5118132;28;19924;-62
2022/07/07 11:12:35;;;;;;;;;;;;;;;23.54;83.32;98326.78;5118124;28;19924;-61
2022/07/07 11:15:21;;;;;;;;;;;;;;;23.60;83.05;98336.34;5119732;28;19955;-62
2022/07/07 11:17:50;;;;;;;;;;;;;;;23.49;84.00;98332.44;5121659;28;19936;-61
2022/07/07 11:20:17;;;;;;;;;;;;;;;23.55;83.46;98323.72;5116458;27;19942;-62
2022/07/07 11:22:44;;;;;;;;;;;;;;;23.59;83.00;98318.38;5130603;27;19923;-62
2022/07/07 11:25:10;;;;;;;;;;;;;;;23.24;86.88;98319.88;5125256;28;19924;-62
2022/07/07 11:27:37;;;;;;;;;;;;;;;23.28;87.49;98316.13;5125438;28;20067;-62
2022/07/07 11:30:04;;;;;;;;;;;;;;;22.97;87.89;98310.31;5123646;28;19995;-61
2022/07/07 11:32:35;;;;;;;;;;;;;;;22.90;88.48;98320.97;5122278;28;19946;-61
2022/07/07 11:35:04;;;;;;;;;;;;;;;22.73;90.49;98330.06;5124249;28;19963;-61
2022/07/07 11:37:31;;;;;;;;;;;;;;;22.94;90.05;98319.16;5125683;28;19924;-62
2022/07/07 11:39:58;;;;;;;;;;;;;;;23.00;87.72;98317.81;5124340;28;19951;-62
2022/07/07 11:42:24;;;;;;;;;;;;;;;23.16;86.15;98318.81;5103779;28;19967;-62
2022/07/07 11:44:51;;;;;;;;;;;;;;;23.20;87.18;98327.91;5122068;28;19924;-63
2022/07/07 11:47:17;;;;;;;;;;;;;;;23.28;87.19;98326.22;5125273;28;19928;-62
2022/07/07 11:49:44;;;;;;;;;;;;;;;23.10;88.60;98325.59;5125264;28;19999;-63
2022/07/07 11:52:15;;;;;;;;;;;;;;;23.17;89.66;98334.03;5135006;27;19943;-62
2022/07/07 11:54:46;;;;;;;;;;;;;;;23.14;89.19;98326.53;5121526;28;19924;-61
2022/07/07 11:57:12;;;;;;;;;;;;;;;23.28;87.86;98326.22;5124659;28;19963;-61
2022/07/07 11:59:38;;;;;;;;;;;;;;;23.39;87.88;98321.94;5125098;28;19927;-61
2022/07/07 12:02:16;;;;;;;;;;;;;;;23.30;89.01;98316.59;5122857;28;19920;-62
2022/07/07 12:04:42;;;;;;;;;;;;;;;23.27;89.15;98319.19;5121539;28;19935;-61
2022/07/07 12:07:09;;;;;;;;;;;;;;;23.36;88.60;98319.91;5123836;28;19935;-62
2022/07/07 12:09:37;;;;;;;;;;;;;;;22.94;91.90;98309.06;5124508;28;19928;-61
2022/07/07 12:12:04;;;;;;;;;;;;;;;22.85;92.73;98313.78;5122383;28;19953;-62
2022/07/07 12:14:32;;;;;;;;;;;;;;;22.87;93.87;98310.75;5120881;28;19924;-61
2022/07/07 12:16:58;;;;;;;;;;;;;;;23.01;92.86;98311.25;5122362;28;19928;-61
2022/07/07 12:19:24;;;;;;;;;;;;;;;23.24;93.31;98311.69;5124501;28;19959;-62
2022/07/07 12:21:51;;;;;;;;;;;;;;;23.20;93.00;98308.84;5136976;27;19928;-61
2022/07/07 12:24:21;;;;;;;;;;;;;;;23.46;91.56;98300.41;5121000;28;19955;-62
2022/07/07 12:26:50;;;;;;;;;;;;;;;23.20;93.14;98305.31;5120836;28;19931;-62
2022/07/07 12:29:17;;;;;;;;;;;;;;;23.38;92.40;98299.34;5120662;28;19935;-62
2022/07/07 12:31:43;;;;;;;;;;;;;;;23.34;91.27;98301.13;5120633;28;19928;-62
2022/07/07 12:34:10;;;;;;;;;;;;;;;23.51;92.03;98292.81;5123901;28;19951;-61
2022/07/07 12:36:37;;;;;;;;;;;;;;;23.42;92.49;98300.31;5124385;28;19934;-62
2022/07/07 12:39:04;;;;;;;;;;;;;;;23.13;93.93;98300.41;5122276;28;19931;-61
2022/07/07 12:41:32;;;;;;;;;;;;;;;23.41;93.65;98293.25;5120617;28;19946;-61
2022/07/07 12:44:12;;;;;;;;;;;;;;;23.37;93.41;98307.84;5122022;28;19932;-60
2022/07/07 12:46:39;;;;;;;;;;;;;;;23.19;93.69;98301.78;5124143;28;19928;-62
2022/07/07 12:49:06;;;;;;;;;;;;;;;23.02;95.92;98302.75;5121524;28;19924;-61
2022/07/07 12:51:33;;;;;;;;;;;;;;;23.31;94.14;98301.00;5132669;27;19963;-61
2022/07/07 12:53:59;;;;;;;;;;;;;;;23.17;93.32;98304.06;5122497;28;19935;-62